createdAt,value
2018-12-19T00:00:24.779Z,98294.61
2018-12-19T00:03:08.029Z,98291.84
2018-12-19T00:05:41.106Z,98284.01
2018-12-19T00:08:09.961Z,98283.12
2018-12-19T00:10:38.702Z,98278.48
2018-12-19T00:13:09.592Z,98281.16
2018-12-19T00:15:38.749Z,98282.66
2018-12-19T00:18:07.444Z,98284.42
2018-12-19T00:20:36.314Z,98289.22
2018-12-19T00:23:05.266Z,98289.13
2018-12-19T00:25:34.914Z,98284.08
2018-12-19T00:28:06.714Z,98289.75
2018-12-19T00:30:37.612Z,98290.45
2018-12-19T00:33:08.598Z,98293.42
2018-12-19T00:35:39.554Z,98288.86
2018-12-19T00:38:08.416Z,98286.09
2018-12-19T00:40:37.272Z,98292.78
2018-12-19T00:43:08.076Z,98289.98
2018-12-19T00:45:37.075Z,98288.66
2018-12-19T00:48:06.501Z,98286.01
2018-12-19T00:50:36.154Z,98287.95
2018-12-19T00:53:05.071Z,98284.31
2018-12-19T00:55:34.824Z,98286.19
2018-12-19T00:58:03.835Z,98284.16
2018-12-19T01:00:34.079Z,98284.59
2018-12-19T01:03:10.432Z,98287.12
2018-12-19T01:05:40.534Z,98290.53
2018-12-19T01:08:09.619Z,98283.95
2018-12-19T01:10:39.931Z,98286.25
2018-12-19T01:13:08.870Z,98284.02
2018-12-19T01:15:37.891Z,98285.28
2018-12-19T01:20:56.916Z,98285.80
2018-12-19T01:23:47.133Z,98283.31
2018-12-19T01:26:28.672Z,98297.11
2018-12-19T01:28:57.912Z,98293.34
2018-12-19T01:31:30.446Z,98295.91
2018-12-19T01:34:00.328Z,98293.63
2018-12-19T01:36:32.027Z,98290.86
2018-12-19T01:39:02.025Z,98288.53
2018-12-19T01:41:43.936Z,98288.53
2018-12-19T01:44:17.504Z,98282.64
2018-12-19T01:46:56.629Z,98291.59
2018-12-19T01:49:27.862Z,98291.38
2018-12-19T01:52:07.135Z,98285.20
2018-12-19T01:54:38.134Z,98285.52
2018-12-19T01:57:15.736Z,98289.73
2018-12-19T01:59:46.113Z,98278.42
2018-12-19T02:02:15.399Z,98282.18
2018-12-19T02:04:50.634Z,98279.77
2018-12-19T02:07:28.531Z,98288.22
2018-12-19T02:09:58.210Z,98284.82
2018-12-19T02:12:38.952Z,98283.23
2018-12-19T02:15:18.641Z,98279.56
2018-12-19T02:17:53.729Z,98275.43
2018-12-19T02:20:22.625Z,98272.34
2018-12-19T02:22:52.059Z,98275.57
2018-12-19T02:25:21.055Z,98267.72
2018-12-19T02:27:53.997Z,98265.44
2018-12-19T02:30:22.886Z,98262.53
2018-12-19T02:32:53.784Z,98261.10
2018-12-19T02:35:22.873Z,98260.47
2018-12-19T02:37:52.281Z,98259.30
2018-12-19T02:40:28.894Z,98254.70
2018-12-19T02:43:00.544Z,98251.91
2018-12-19T02:45:29.487Z,98245.12
2018-12-19T02:47:58.445Z,98242.48
2018-12-19T02:50:29.765Z,98247.09
2018-12-19T02:52:59.334Z,98251.84
2018-12-19T02:55:28.234Z,98244.03
2018-12-19T02:57:57.653Z,98240.06
2018-12-19T03:00:26.935Z,98236.22
2018-12-19T03:03:00.932Z,98224.59
2018-12-19T03:05:33.639Z,98217.11
2018-12-19T03:08:03.156Z,98224.16
2018-12-19T03:10:32.036Z,98223.43
2018-12-19T03:13:01.696Z,98223.11
2018-12-19T03:15:30.613Z,98218.63
2018-12-19T03:18:00.405Z,98215.55
2018-12-19T03:20:29.259Z,98218.11
2018-12-19T03:22:58.206Z,98218.07
2018-12-19T03:25:27.508Z,98220.24
2018-12-19T03:30:26.145Z,98218.76
2018-12-19T03:33:01.535Z,98224.34
2018-12-19T03:35:30.651Z,98216.49
2018-12-19T03:37:59.606Z,98214.81
2018-12-19T03:40:30.077Z,98216.08
2018-12-19T03:42:59.152Z,98210.78
2018-12-19T03:45:29.023Z,98221.72
2018-12-19T03:48:01.563Z,98218.71
2018-12-19T03:50:30.601Z,98213.70
2018-12-19T03:52:59.818Z,98212.22
2018-12-19T03:55:29.304Z,98204.38
2018-12-19T03:58:05.904Z,98203.50
2018-12-19T04:00:39.229Z,98205.24
2018-12-19T04:03:14.534Z,98206.64
2018-12-19T04:05:47.698Z,98211.77
2018-12-19T04:08:17.327Z,98214.02
2018-12-19T04:10:46.322Z,98211.48
2018-12-19T04:13:16.282Z,98210.53
2018-12-19T04:15:45.121Z,98210.17
2018-12-19T04:18:15.091Z,98207.81
2018-12-19T04:20:45.790Z,98204.70
2018-12-19T04:23:15.356Z,98205.37
2018-12-19T04:25:46.332Z,98209.94
2018-12-19T04:28:15.957Z,98215.27
2018-12-19T04:30:44.772Z,98218.31
2018-12-19T04:33:13.882Z,98221.28
2018-12-19T04:35:43.070Z,98226.52
2018-12-19T04:38:12.460Z,98228.33
2018-12-19T04:40:42.520Z,98226.95
2018-12-19T04:43:11.517Z,98221.78
2018-12-19T04:45:40.925Z,98225.36
2018-12-19T04:48:09.892Z,98219.80
2018-12-19T04:50:39.639Z,98222.72
2018-12-19T04:53:08.572Z,98217.91
2018-12-19T04:55:37.388Z,98215.52
2018-12-19T04:58:07.240Z,98213.30
2018-12-19T05:00:36.390Z,98205.50
2018-12-19T05:03:10.440Z,98203.41
2018-12-19T05:05:40.468Z,98201.69
2018-12-19T05:08:09.316Z,98204.54
2018-12-19T05:10:38.577Z,98206.66
2018-12-19T05:13:08.700Z,98206.81
2018-12-19T05:15:37.620Z,98210.54
2018-12-19T05:18:06.523Z,98204.89
2018-12-19T05:20:35.206Z,98203.69
2018-12-19T05:23:04.885Z,98208.00
2018-12-19T05:25:34.445Z,98211.86
2018-12-19T05:28:03.321Z,98221.47
2018-12-19T05:30:32.976Z,98217.34
2018-12-19T05:33:06.355Z,98206.45
2018-12-19T05:35:38.893Z,98205.70
2018-12-19T05:38:08.590Z,98206.09
2018-12-19T05:40:40.620Z,98207.66
2018-12-19T05:43:09.667Z,98217.66
2018-12-19T05:45:38.553Z,98228.92
2018-12-19T05:48:07.607Z,98226.68
2018-12-19T05:50:36.750Z,98232.17
2018-12-19T05:53:05.808Z,98237.94
2018-12-19T05:55:34.940Z,98234.73
2018-12-19T05:58:03.957Z,98240.06
2018-12-19T06:00:32.841Z,98239.12
2018-12-19T06:03:16.043Z,98236.95
2018-12-19T06:05:46.901Z,98227.03
2018-12-19T06:08:16.395Z,98223.80
2018-12-19T06:10:48.695Z,98231.92
2018-12-19T06:13:18.948Z,98227.32
2018-12-19T06:15:47.640Z,98236.15
2018-12-19T06:18:23.250Z,98229.24
2018-12-19T06:23:36.292Z,98224.75
2018-12-19T06:26:07.363Z,98228.41
2018-12-19T06:28:35.950Z,98236.25
2018-12-19T06:31:04.702Z,98228.33
2018-12-19T06:33:34.294Z,98217.59
2018-12-19T06:36:04.630Z,98225.64
2018-12-19T06:38:35.045Z,98224.97
2018-12-19T06:41:07.611Z,98226.28
2018-12-19T06:43:37.241Z,98228.92
2018-12-19T06:46:05.990Z,98228.93
2018-12-19T06:48:36.768Z,98241.34
2018-12-19T06:51:08.230Z,98236.58
2018-12-19T06:53:38.495Z,98240.74
2018-12-19T06:56:08.636Z,98237.85
2018-12-19T06:58:37.393Z,98229.95
2018-12-19T07:01:07.022Z,98228.91
2018-12-19T07:03:45.843Z,98231.13
2018-12-19T07:06:19.198Z,98227.22
2018-12-19T07:08:48.310Z,98233.20
2018-12-19T07:11:17.668Z,98230.91
2018-12-19T07:13:47.182Z,98233.57
2018-12-19T07:16:16.205Z,98231.41
2018-12-19T07:18:45.292Z,98233.55
2018-12-19T07:21:15.970Z,98231.88
2018-12-19T07:23:46.053Z,98238.31
2018-12-19T07:26:15.722Z,98242.47
2018-12-19T07:28:44.620Z,98244.63
2018-12-19T07:31:13.575Z,98250.07
2018-12-19T07:33:43.667Z,98252.39
2018-12-19T07:36:21.945Z,98251.25
2018-12-19T07:38:51.926Z,98262.86
2018-12-19T07:41:20.793Z,98261.56
2018-12-19T07:43:49.968Z,98261.75
2018-12-19T07:46:25.939Z,98258.44
2018-12-19T07:48:55.319Z,98260.61
2018-12-19T07:51:24.404Z,98261.94
2018-12-19T07:53:54.330Z,98258.14
2018-12-19T07:56:22.997Z,98257.64
2018-12-19T07:58:51.779Z,98263.45
2018-12-19T08:01:20.675Z,98274.56
2018-12-19T08:03:57.444Z,98269.11
2018-12-19T08:06:27.697Z,98267.78
2018-12-19T08:08:56.469Z,98276.91
2018-12-19T08:11:30.209Z,98283.05
2018-12-19T08:14:00.326Z,98273.92
2018-12-19T08:16:34.762Z,98282.05
2018-12-19T08:19:04.137Z,98271.92
2018-12-19T08:21:33.689Z,98280.39
2018-12-19T08:24:02.482Z,98282.70
2018-12-19T08:29:51.002Z,98287.00
2018-12-19T08:32:28.342Z,98286.00
2018-12-19T08:34:59.365Z,98288.28
2018-12-19T08:37:41.444Z,98274.31
2018-12-19T08:40:17.907Z,98277.03
2018-12-19T08:42:46.709Z,98279.02
2018-12-19T08:45:20.140Z,98286.16
2018-12-19T08:47:51.445Z,98295.93
2018-12-19T08:50:20.947Z,98286.93
2018-12-19T08:52:57.880Z,98287.83
2018-12-19T08:55:26.751Z,98288.48
2018-12-19T08:57:56.170Z,98290.57
2018-12-19T09:00:26.611Z,98290.31
2018-12-19T09:03:00.344Z,98296.64
2018-12-19T09:05:30.497Z,98294.35
2018-12-19T09:07:59.648Z,98298.59
2018-12-19T09:10:28.261Z,98293.10
2018-12-19T09:12:57.095Z,98291.13
2018-12-19T09:15:31.242Z,98303.64
2018-12-19T09:18:00.040Z,98299.19
2018-12-19T09:20:29.055Z,98298.22
2018-12-19T09:22:59.536Z,98305.08
2018-12-19T09:25:28.864Z,98316.47
2018-12-19T09:27:57.794Z,98307.64
2018-12-19T09:30:27.902Z,98306.00
2018-12-19T09:32:56.632Z,98301.74
2018-12-19T09:35:25.540Z,98304.02
2018-12-19T09:38:01.552Z,98300.52
2018-12-19T09:40:30.495Z,98297.56
2018-12-19T09:42:59.418Z,98288.94
2018-12-19T09:45:51.751Z,98292.75
2018-12-19T09:48:33.046Z,98298.29
2018-12-19T09:51:07.285Z,98296.63
2018-12-19T09:53:37.335Z,98295.73
2018-12-19T09:56:06.369Z,98299.23
2018-12-19T09:58:38.284Z,98304.08
2018-12-19T10:01:07.224Z,98294.86
2018-12-19T10:03:45.743Z,98296.23
2018-12-19T10:06:14.700Z,98298.55
2018-12-19T10:08:44.604Z,98289.48
2018-12-19T10:11:18.753Z,98292.24
2018-12-19T10:13:58.319Z,98294.54
2018-12-19T10:16:28.707Z,98281.39
2018-12-19T10:18:59.171Z,98283.06
2018-12-19T10:21:32.448Z,98286.89
2018-12-19T10:24:02.524Z,98283.39
2018-12-19T10:26:33.844Z,98283.61
2018-12-19T10:29:05.231Z,98277.03
2018-12-19T10:31:34.186Z,98272.02
2018-12-19T10:34:03.619Z,98266.59
2018-12-19T10:36:40.605Z,98262.12
2018-12-19T10:39:13.198Z,98253.58
2018-12-19T10:41:47.151Z,98260.54
2018-12-19T10:44:16.901Z,98263.09
2018-12-19T10:46:54.945Z,98256.13
2018-12-19T10:49:26.387Z,98256.41
2018-12-19T10:52:03.550Z,98250.83
2018-12-19T10:54:34.344Z,98244.93
2018-12-19T10:57:11.450Z,98245.99
2018-12-19T10:59:43.084Z,98241.27
2018-12-19T11:02:11.995Z,98243.11
2018-12-19T11:04:50.259Z,98240.35
2018-12-19T11:07:31.108Z,98236.70
2018-12-19T11:10:02.767Z,98230.65
2018-12-19T11:12:44.170Z,98223.25
2018-12-19T11:15:16.804Z,98209.09
2018-12-19T11:17:46.073Z,98213.28
2018-12-19T11:20:18.145Z,98210.66
2018-12-19T11:23:00.054Z,98211.34
2018-12-19T11:25:29.477Z,98202.70
2018-12-19T11:28:05.039Z,98203.80
2018-12-19T11:30:33.690Z,98198.47
2018-12-19T11:33:02.764Z,98194.03
2018-12-19T11:35:31.822Z,98188.45
2018-12-19T11:38:00.823Z,98183.47
2018-12-19T11:40:29.679Z,98182.58
2018-12-19T11:42:58.765Z,98188.00
2018-12-19T11:45:28.441Z,98185.84
2018-12-19T11:47:57.585Z,98180.05
2018-12-19T11:50:27.317Z,98174.08
2018-12-19T11:52:57.047Z,98162.53
2018-12-19T11:55:26.677Z,98158.42
2018-12-19T11:57:55.504Z,98145.02
2018-12-19T12:00:25.009Z,98141.91
2018-12-19T12:03:07.349Z,98140.45
2018-12-19T12:05:39.165Z,98144.19
2018-12-19T12:08:09.109Z,98152.00
2018-12-19T12:10:40.856Z,98153.61
2018-12-19T12:13:10.126Z,98154.53
2018-12-19T12:15:39.189Z,98141.52
2018-12-19T12:18:08.162Z,98138.36
2018-12-19T12:20:37.684Z,98137.54
2018-12-19T12:23:08.077Z,98131.45
2018-12-19T12:25:37.072Z,98125.14
2018-12-19T12:28:06.008Z,98110.84
2018-12-19T12:30:35.423Z,98112.23
2018-12-19T12:33:04.630Z,98119.00
2018-12-19T12:35:35.087Z,98121.48
2018-12-19T12:38:34.229Z,98113.73
2018-12-19T12:41:04.339Z,98120.20
2018-12-19T12:43:33.371Z,98117.41
2018-12-19T12:46:02.850Z,98115.46
2018-12-19T12:48:33.076Z,98117.55
2018-12-19T12:51:02.058Z,98109.73
2018-12-19T12:53:33.151Z,98106.31
2018-12-19T12:56:02.378Z,98111.17
2018-12-19T12:58:31.966Z,98105.39
2018-12-19T13:01:01.765Z,98107.05
2018-12-19T13:03:38.853Z,98099.00
2018-12-19T13:06:09.675Z,98088.81
2018-12-19T13:08:39.147Z,98086.59
2018-12-19T13:11:08.175Z,98082.67
2018-12-19T13:13:37.070Z,98073.27
2018-12-19T13:16:06.428Z,98060.13
2018-12-19T13:18:35.345Z,98052.95
2018-12-19T13:21:04.269Z,98065.66
2018-12-19T13:23:33.418Z,98051.34
2018-12-19T13:26:02.934Z,98041.25
2018-12-19T13:28:32.425Z,98043.91
2018-12-19T13:31:01.873Z,98041.45
2018-12-19T13:33:32.255Z,98045.88
2018-12-19T13:36:01.192Z,98053.28
2018-12-19T13:38:30.205Z,98058.86
2018-12-19T13:41:05.948Z,98048.45
2018-12-19T13:43:35.547Z,98037.22
2018-12-19T13:46:04.245Z,98041.46
2018-12-19T13:48:32.974Z,98048.88
2018-12-19T13:51:02.307Z,98042.47
2018-12-19T13:53:31.562Z,98058.54
2018-12-19T13:56:01.391Z,98054.02
2018-12-19T13:58:30.517Z,98042.69
2018-12-19T14:01:00.643Z,98060.72
2018-12-19T14:03:35.561Z,98069.48
2018-12-19T14:06:06.907Z,98070.00
2018-12-19T14:08:51.373Z,98070.72
2018-12-19T14:11:21.723Z,98079.67
2018-12-19T14:13:51.207Z,98083.77
2018-12-19T14:16:24.265Z,98078.83
2018-12-19T14:21:19.120Z,98084.30
2018-12-19T14:23:56.666Z,98079.89
2018-12-19T14:26:26.681Z,98072.45
2018-12-19T14:29:19.700Z,98066.48
2018-12-19T14:31:53.764Z,98071.03
2018-12-19T14:34:24.717Z,98072.67
2018-12-19T14:36:56.269Z,98065.68
2018-12-19T14:39:25.813Z,98056.08
2018-12-19T14:42:01.558Z,98042.71
2018-12-19T14:44:31.090Z,98010.50
2018-12-19T14:47:08.955Z,98003.61
2018-12-19T14:49:40.620Z,98033.02
2018-12-19T14:52:23.655Z,98024.28
2018-12-19T14:54:54.489Z,98007.31
2018-12-19T14:57:32.870Z,98015.44
2018-12-19T15:00:13.861Z,98011.34
2018-12-19T15:02:55.164Z,98013.67
2018-12-19T15:05:25.898Z,98012.14
2018-12-19T15:07:55.689Z,97996.98
2018-12-19T15:10:24.741Z,98006.58
2018-12-19T15:13:03.157Z,97999.48
2018-12-19T15:15:32.742Z,98007.90
2018-12-19T15:18:01.692Z,98008.11
2018-12-19T15:20:31.621Z,98006.88
2018-12-19T15:23:02.283Z,98002.90
2018-12-19T15:25:31.562Z,98011.14
2018-12-19T15:28:03.457Z,98001.97
2018-12-19T15:30:32.847Z,98000.93
2018-12-19T15:33:01.927Z,97996.00
2018-12-19T15:35:30.957Z,98011.84
2018-12-19T15:38:00.387Z,98010.17
2018-12-19T15:40:31.099Z,98026.01
2018-12-19T15:43:04.710Z,98019.95
2018-12-19T15:45:33.769Z,98016.14
2018-12-19T15:48:04.303Z,98014.39
2018-12-19T15:50:33.377Z,98033.61
2018-12-19T15:53:02.222Z,98031.68
2018-12-19T15:55:32.210Z,98014.19
2018-12-19T15:58:08.029Z,98013.89
2018-12-19T16:00:38.490Z,98009.07
2018-12-19T16:03:19.157Z,98007.31
2018-12-19T16:05:49.794Z,98018.13
2018-12-19T16:08:18.971Z,98029.45
2018-12-19T16:10:48.278Z,98028.62
2018-12-19T16:13:17.424Z,98027.70
2018-12-19T16:15:46.789Z,98026.45
2018-12-19T16:18:16.343Z,98013.58
2018-12-19T16:20:46.037Z,98018.34
2018-12-19T16:23:16.225Z,98026.36
2018-12-19T16:25:45.730Z,98028.12
2018-12-19T16:28:16.269Z,98022.34
2018-12-19T16:30:45.954Z,98021.94
2018-12-19T16:33:15.451Z,98027.29
2018-12-19T16:35:44.461Z,98017.69
2018-12-19T16:38:14.731Z,98006.20
2018-12-19T16:40:44.346Z,98006.41
2018-12-19T16:43:13.379Z,97995.88
2018-12-19T16:45:57.623Z,97994.75
2018-12-19T16:48:27.172Z,97993.09
2018-12-19T16:50:56.307Z,97985.61
2018-12-19T16:53:25.714Z,97996.51
2018-12-19T16:55:55.084Z,97993.00
2018-12-19T16:58:23.996Z,97992.59
2018-12-19T17:00:52.829Z,97994.96
2018-12-19T17:03:26.580Z,97987.86
2018-12-19T17:06:13.567Z,97985.27
2018-12-19T17:08:44.511Z,97982.19
2018-12-19T17:11:14.319Z,97978.59
2018-12-19T17:13:43.620Z,97998.43
2018-12-19T17:16:14.957Z,98002.15
2018-12-19T17:18:45.711Z,98007.49
2018-12-19T17:21:15.194Z,98011.50
2018-12-19T17:23:45.871Z,97999.55
2018-12-19T17:26:15.809Z,98012.09
2018-12-19T17:28:46.264Z,98009.53
2018-12-19T17:31:16.032Z,98005.91
2018-12-19T17:33:46.802Z,98015.51
2018-12-19T17:39:26.463Z,97998.02
2018-12-19T17:42:19.157Z,98003.58
2018-12-19T17:44:49.757Z,97991.96
2018-12-19T17:47:24.772Z,97997.43
2018-12-19T17:49:55.693Z,98002.98
2018-12-19T17:52:34.560Z,98002.90
2018-12-19T17:55:05.217Z,97992.70
2018-12-19T17:57:41.465Z,97988.91
2018-12-19T18:03:03.767Z,97982.02
2018-12-19T18:05:38.560Z,97983.55
2018-12-19T18:08:08.692Z,97978.94
2018-12-19T18:10:39.308Z,97984.80
2018-12-19T18:13:09.663Z,97962.77
2018-12-19T18:15:38.370Z,97970.28
2018-12-19T18:18:07.441Z,97967.82
2018-12-19T18:20:36.157Z,97965.03
2018-12-19T18:23:05.045Z,97961.74
2018-12-19T18:25:34.000Z,97962.38
2018-12-19T18:28:07.811Z,97963.38
2018-12-19T18:30:37.328Z,97965.66
2018-12-19T18:33:06.433Z,97962.27
2018-12-19T18:35:37.933Z,97958.26
2018-12-19T18:38:06.769Z,97949.71
2018-12-19T18:40:35.871Z,97960.29
2018-12-19T18:43:13.075Z,97953.63
2018-12-19T18:45:49.727Z,97952.69
2018-12-19T18:48:19.320Z,97949.11
2018-12-19T18:50:48.043Z,97955.47
2018-12-19T18:53:16.753Z,97950.02
2018-12-19T18:55:45.602Z,97943.95
2018-12-19T18:58:14.408Z,97939.44
2018-12-19T19:00:45.574Z,97929.87
2018-12-19T19:03:24.565Z,97938.49
2018-12-19T19:05:55.749Z,97931.70
2018-12-19T19:08:26.006Z,97932.34
2018-12-19T19:10:57.919Z,97942.20
2018-12-19T19:13:26.717Z,97942.30
2018-12-19T19:15:56.502Z,97944.98
2018-12-19T19:18:25.428Z,97944.06
2018-12-19T19:20:55.329Z,97950.54
2018-12-19T19:23:25.489Z,97947.98
2018-12-19T19:25:54.484Z,97958.67
2018-12-19T19:28:23.486Z,97955.78
2018-12-19T19:30:54.638Z,97961.22
2018-12-19T19:33:23.336Z,97956.81
2018-12-19T19:35:52.335Z,97954.12
2018-12-19T19:38:21.910Z,97950.84
2018-12-19T19:40:51.425Z,97959.19
2018-12-19T19:43:26.281Z,97950.73
2018-12-19T19:45:51.665Z,97957.95
2018-12-19T19:48:21.808Z,97957.20
2018-12-19T19:50:51.893Z,97959.48
2018-12-19T19:53:21.406Z,97961.03
2018-12-19T19:55:50.215Z,97965.14
2018-12-19T19:58:18.875Z,97957.71
2018-12-19T20:00:48.640Z,97953.08
2018-12-19T20:03:17.748Z,97955.55
2018-12-19T20:05:53.800Z,97963.63
2018-12-19T20:08:25.342Z,97951.40
2018-12-19T20:10:55.563Z,97945.02
2018-12-19T20:13:24.805Z,97948.81
2018-12-19T20:15:53.883Z,97940.50
2018-12-19T20:18:22.852Z,97935.73
2018-12-19T20:20:52.630Z,97933.27
2018-12-19T20:23:21.998Z,97930.31
2018-12-19T20:25:51.057Z,97932.70
2018-12-19T20:28:20.195Z,97938.11
2018-12-19T20:30:49.175Z,97930.52
2018-12-19T20:33:18.179Z,97933.03
2018-12-19T20:35:47.075Z,97930.16
2018-12-19T20:38:17.088Z,97930.48
2018-12-19T20:40:46.370Z,97921.45
2018-12-19T20:43:16.117Z,97924.50
2018-12-19T20:45:46.330Z,97926.27
2018-12-19T20:48:16.408Z,97920.92
2018-12-19T20:50:45.224Z,97923.55
2018-12-19T20:53:16.167Z,97913.78
2018-12-19T20:55:45.550Z,97908.73
2018-12-19T20:58:14.784Z,97920.05
2018-12-19T21:00:44.103Z,97921.51
2018-12-19T21:03:20.267Z,97925.94
2018-12-19T21:05:52.783Z,97921.22
2018-12-19T21:08:22.273Z,97932.95
2018-12-19T21:10:51.201Z,97921.92
2018-12-19T21:13:20.213Z,97919.67
2018-12-19T21:15:49.809Z,97934.38
2018-12-19T21:18:26.576Z,97943.93
2018-12-19T21:20:56.191Z,97941.88
2018-12-19T21:23:26.849Z,97926.97
2018-12-19T21:25:55.754Z,97934.23
2018-12-19T21:28:30.950Z,97938.45
2018-12-19T21:31:00.381Z,97946.20
2018-12-19T21:33:34.570Z,97949.42
2018-12-19T21:36:09.434Z,97941.42
2018-12-19T21:38:40.191Z,97935.52
2018-12-19T21:41:09.184Z,97934.72
2018-12-19T21:43:38.845Z,97950.05
2018-12-19T21:46:08.526Z,97950.77
2018-12-19T21:48:39.237Z,97941.22
2018-12-19T21:51:08.309Z,97944.20
2018-12-19T21:53:37.297Z,97929.11
2018-12-19T21:56:06.265Z,97936.91
2018-12-19T21:58:35.198Z,97934.03
2018-12-19T22:01:04.359Z,97929.19
2018-12-19T22:03:41.187Z,97932.48
2018-12-19T22:06:11.229Z,97929.27
2018-12-19T22:08:40.051Z,97918.28
2018-12-19T22:11:10.063Z,97920.03
2018-12-19T22:13:38.851Z,97922.59
2018-12-19T22:16:09.774Z,97924.55
2018-12-19T22:18:42.075Z,97910.57
2018-12-19T22:21:10.809Z,97911.61
2018-12-19T22:23:42.481Z,97902.30
2018-12-19T22:26:11.695Z,97895.20
2018-12-19T22:28:40.591Z,97904.14
2018-12-19T22:31:09.558Z,97903.02
2018-12-19T22:33:38.319Z,97904.97
2018-12-19T22:36:08.455Z,97878.55
2018-12-19T22:38:37.820Z,97879.27
2018-12-19T22:41:06.813Z,97892.33
2018-12-19T22:43:35.747Z,97877.23
2018-12-19T22:46:04.985Z,97884.84
2018-12-19T22:48:33.999Z,97873.31
2018-12-19T22:51:02.753Z,97859.03
2018-12-19T22:53:31.537Z,97855.14
2018-12-19T22:56:00.762Z,97853.89
2018-12-19T22:58:29.494Z,97853.16
2018-12-19T23:01:10.986Z,97866.00
2018-12-19T23:03:45.398Z,97853.34
2018-12-19T23:06:24.887Z,97846.05
2018-12-19T23:08:55.689Z,97810.17
2018-12-19T23:11:24.597Z,97833.43
2018-12-19T23:13:53.253Z,97829.11
2018-12-19T23:16:29.798Z,97828.30
2018-12-19T23:19:04.055Z,97848.53
2018-12-19T23:21:43.105Z,97794.72
2018-12-19T23:24:17.490Z,97829.23
2018-12-19T23:26:51.825Z,97850.61
2018-12-19T23:29:26.150Z,97832.11
2018-12-19T23:32:02.876Z,97816.36
2018-12-19T23:34:33.092Z,97800.34
2018-12-19T23:37:10.080Z,97799.81
2018-12-19T23:39:40.825Z,97786.05
2018-12-19T23:42:21.077Z,97768.66
2018-12-19T23:44:50.403Z,97799.73
2018-12-19T23:47:33.476Z,97816.36
2018-12-19T23:50:03.560Z,97807.94
2018-12-19T23:52:44.495Z,97809.27
2018-12-19T23:55:18.357Z,97798.71
2018-12-19T23:58:06.571Z,97792.42
